createdAt,value
2022-09-16T00:01:11.432Z,4.55
2022-09-16T00:03:40.467Z,7.85
2022-09-16T00:06:09.340Z,4.38
2022-09-16T00:08:40.414Z,6.10
2022-09-16T00:11:10.367Z,6.53
2022-09-16T00:13:38.900Z,4.25
2022-09-16T00:16:10.008Z,4.82
2022-09-16T00:18:38.573Z,4.72
2022-09-16T00:21:09.529Z,6.10
2022-09-16T00:23:38.167Z,5.15
2022-09-16T00:26:07.414Z,7.20
2022-09-16T00:28:37.345Z,4.78
2022-09-16T00:31:06.010Z,5.78
2022-09-16T00:33:34.626Z,4.22
2022-09-16T00:36:07.377Z,3.63
2022-09-16T00:38:36.102Z,6.22
2022-09-16T00:41:06.147Z,3.20
2022-09-16T00:43:50.027Z,5.65
2022-09-16T00:46:18.969Z,5.18
2022-09-16T00:48:47.568Z,7.15
2022-09-16T00:51:17.267Z,7.95
2022-09-16T00:53:49.424Z,7.63
2022-09-16T00:56:19.280Z,4.53
2022-09-16T00:58:49.319Z,5.47
2022-09-16T01:01:19.357Z,6.47
2022-09-16T01:03:50.191Z,6.30
2022-09-16T01:06:20.158Z,6.30
2022-09-16T01:08:51.245Z,5.18
2022-09-16T01:11:20.053Z,6.07
2022-09-16T01:13:49.074Z,4.82
2022-09-16T01:16:21.677Z,4.70
2022-09-16T01:18:54.320Z,5.03
2022-09-16T01:21:27.323Z,4.30
2022-09-16T01:24:04.249Z,5.10
2022-09-16T01:26:52.710Z,5.25
2022-09-16T01:29:36.127Z,5.90
2022-09-16T01:32:08.252Z,4.05
2022-09-16T01:34:41.128Z,3.70
2022-09-16T01:37:12.501Z,6.18
2022-09-16T01:39:45.177Z,5.47
2022-09-16T01:42:21.090Z,5.43
2022-09-16T01:44:55.644Z,5.60
2022-09-16T01:47:30.202Z,4.38
2022-09-16T01:50:03.034Z,5.15
2022-09-16T01:52:37.412Z,5.35
2022-09-16T01:55:07.258Z,6.97
2022-09-16T01:57:38.679Z,5.20
2022-09-16T02:00:10.651Z,5.85
2022-09-16T02:02:42.618Z,4.38
2022-09-16T02:05:13.770Z,5.30
2022-09-16T02:07:43.907Z,5.97
2022-09-16T02:10:15.819Z,4.68
2022-09-16T02:12:46.180Z,4.80
2022-09-16T02:15:22.332Z,4.53
2022-09-16T02:17:56.080Z,5.28
2022-09-16T02:20:27.419Z,6.43
2022-09-16T02:22:58.006Z,4.30
2022-09-16T02:25:27.779Z,5.57
2022-09-16T02:27:56.437Z,5.53
2022-09-16T02:30:25.299Z,4.50
2022-09-16T02:32:57.079Z,5.85
2022-09-16T02:35:28.115Z,3.55
2022-09-16T02:37:58.906Z,4.70
2022-09-16T02:40:28.954Z,5.82
2022-09-16T02:42:58.991Z,4.43
2022-09-16T02:45:33.854Z,5.63
2022-09-16T02:48:05.275Z,3.58
2022-09-16T02:50:40.687Z,4.32
2022-09-16T02:53:14.437Z,6.03
2022-09-16T02:55:48.320Z,4.82
2022-09-16T02:58:16.987Z,4.47
2022-09-16T03:00:47.518Z,4.90
2022-09-16T03:03:17.540Z,5.78
2022-09-16T03:06:02.432Z,5.10
2022-09-16T03:08:30.992Z,3.80
2022-09-16T03:11:02.776Z,7.28
2022-09-16T03:13:38.081Z,6.13
2022-09-16T03:16:09.827Z,4.68
2022-09-16T03:18:56.591Z,4.72
2022-09-16T03:21:31.508Z,3.90
2022-09-16T03:24:07.179Z,5.13
2022-09-16T03:26:37.217Z,6.03
2022-09-16T03:29:12.469Z,6.28
2022-09-16T03:31:45.073Z,4.75
2022-09-16T03:34:17.329Z,4.72
2022-09-16T03:36:49.549Z,5.15
2022-09-16T03:39:18.168Z,5.65
2022-09-16T03:41:47.054Z,5.32
2022-09-16T03:44:15.568Z,6.38
2022-09-16T03:46:44.232Z,7.55
2022-09-16T03:49:12.792Z,5.00
2022-09-16T03:51:41.335Z,6.10
2022-09-16T03:54:11.625Z,5.85
2022-09-16T03:56:40.160Z,5.22
2022-09-16T03:59:08.724Z,7.13
2022-09-16T04:01:37.292Z,5.88
2022-09-16T04:04:05.828Z,5.47
2022-09-16T04:06:34.502Z,4.97
2022-09-16T04:09:04.439Z,5.32
2022-09-16T04:11:35.154Z,6.68
2022-09-16T04:14:03.776Z,9.18
2022-09-16T04:16:32.289Z,6.22
2022-09-16T04:19:00.889Z,6.78
2022-09-16T04:21:29.438Z,8.30
2022-09-16T04:23:58.066Z,7.03
2022-09-16T04:26:26.666Z,6.32
2022-09-16T04:28:56.791Z,5.72
2022-09-16T04:31:25.394Z,6.15
2022-09-16T04:33:54.075Z,8.10
2022-09-16T04:36:22.762Z,6.32
2022-09-16T04:38:51.295Z,7.10
2022-09-16T04:41:20.733Z,5.72
2022-09-16T04:43:52.668Z,7.53
2022-09-16T04:46:22.642Z,6.20
2022-09-16T04:48:51.482Z,7.72
2022-09-16T04:51:20.915Z,7.10
2022-09-16T04:53:49.522Z,5.68
2022-09-16T04:56:18.871Z,7.85
2022-09-16T04:58:48.131Z,7.57
2022-09-16T05:01:17.746Z,7.35
2022-09-16T05:03:48.813Z,5.63
2022-09-16T05:06:20.620Z,8.13
2022-09-16T05:08:49.841Z,6.20
2022-09-16T05:11:19.510Z,8.10
2022-09-16T05:13:48.164Z,7.97
2022-09-16T05:16:17.932Z,6.85
2022-09-16T05:18:48.744Z,6.60
2022-09-16T05:21:18.570Z,7.47
2022-09-16T05:23:48.786Z,7.95
2022-09-16T05:26:18.803Z,8.77
2022-09-16T05:28:47.710Z,7.60
2022-09-16T05:31:17.022Z,6.43
2022-09-16T05:33:47.236Z,7.40
2022-09-16T05:36:18.832Z,7.88
2022-09-16T05:39:11.047Z,9.75
2022-09-16T05:41:36.214Z,9.50
2022-09-16T05:44:06.551Z,8.35
2022-09-16T05:46:35.565Z,8.10
2022-09-16T05:49:04.154Z,8.70
2022-09-16T05:51:34.117Z,8.57
2022-09-16T05:54:02.750Z,9.07
2022-09-16T05:56:31.585Z,8.23
2022-09-16T05:59:01.148Z,11.25
2022-09-16T06:01:31.466Z,13.90
2022-09-16T06:04:00.166Z,9.70
2022-09-16T06:06:29.868Z,10.93
2022-09-16T06:09:00.661Z,11.18
2022-09-16T06:11:29.863Z,10.97
2022-09-16T06:13:59.969Z,11.18
2022-09-16T06:16:32.152Z,11.30
2022-09-16T06:19:01.430Z,10.43
2022-09-16T06:21:30.431Z,8.98
2022-09-16T06:24:00.425Z,11.15
2022-09-16T06:26:29.252Z,10.55
2022-09-16T06:28:58.077Z,10.35
2022-09-16T06:31:27.748Z,9.13
2022-09-16T06:33:56.911Z,10.65
2022-09-16T06:36:26.921Z,11.38
2022-09-16T06:38:55.624Z,10.60
2022-09-16T06:41:25.988Z,10.65
2022-09-16T06:43:54.616Z,11.55
2022-09-16T06:46:24.465Z,11.60
2022-09-16T06:48:53.770Z,11.70
2022-09-16T06:51:23.743Z,10.77
2022-09-16T06:53:52.925Z,10.48
2022-09-16T06:56:22.667Z,11.43
2022-09-16T06:58:55.673Z,10.73
2022-09-16T07:01:24.956Z,12.25
2022-09-16T07:03:54.471Z,10.88
2022-09-16T07:06:33.345Z,12.13
2022-09-16T07:09:12.941Z,11.15
2022-09-16T07:11:42.030Z,11.77
2022-09-16T07:14:12.385Z,10.82
2022-09-16T07:16:40.993Z,13.05
2022-09-16T07:19:09.583Z,11.57
2022-09-16T07:21:38.178Z,11.65
2022-09-16T07:24:06.772Z,12.05
2022-09-16T07:26:37.688Z,11.07
2022-09-16T07:29:07.879Z,10.73
2022-09-16T07:31:38.732Z,11.48
2022-09-16T07:34:08.889Z,10.50
2022-09-16T07:36:38.161Z,10.18
2022-09-16T07:39:07.039Z,11.50
2022-09-16T07:41:37.139Z,10.98
2022-09-16T07:44:06.427Z,12.57
2022-09-16T07:46:35.735Z,12.95
2022-09-16T07:49:06.700Z,11.30
2022-09-16T07:51:35.813Z,13.38
2022-09-16T07:54:05.241Z,10.07
2022-09-16T07:56:35.407Z,11.23
2022-09-16T07:59:04.768Z,9.75
2022-09-16T08:01:33.470Z,12.60
2022-09-16T08:04:02.972Z,11.02
2022-09-16T08:06:33.811Z,11.55
2022-09-16T08:09:27.420Z,11.13
2022-09-16T08:11:51.538Z,11.02
2022-09-16T08:14:20.075Z,9.82
2022-09-16T08:16:51.457Z,9.48
2022-09-16T08:19:20.478Z,10.48
2022-09-16T08:21:50.420Z,9.30
2022-09-16T08:24:19.007Z,10.70
2022-09-16T08:26:47.691Z,7.85
2022-09-16T08:29:16.680Z,11.32
2022-09-16T08:31:46.078Z,12.73
2022-09-16T08:34:16.042Z,10.55
2022-09-16T08:36:44.751Z,10.95
2022-09-16T08:39:15.195Z,10.85
2022-09-16T08:41:51.090Z,14.88
2022-09-16T08:44:25.127Z,14.02
2022-09-16T08:46:54.664Z,13.52
2022-09-16T08:49:28.225Z,11.10
2022-09-16T08:51:57.294Z,9.60
2022-09-16T08:54:29.451Z,12.18
2022-09-16T08:57:03.026Z,10.10
2022-09-16T08:59:34.688Z,9.77
2022-09-16T09:02:13.079Z,11.15
2022-09-16T09:04:41.893Z,12.15
2022-09-16T09:07:15.028Z,11.30
2022-09-16T09:09:50.959Z,11.35
2022-09-16T09:12:23.738Z,13.32
2022-09-16T09:15:02.028Z,13.23
2022-09-16T09:17:37.230Z,13.18
2022-09-16T09:20:22.984Z,13.60
2022-09-16T09:22:58.298Z,15.45
2022-09-16T09:25:33.384Z,10.98
2022-09-16T09:28:09.051Z,15.52
2022-09-16T09:30:38.775Z,11.95
2022-09-16T09:33:34.125Z,15.32
2022-09-16T09:36:14.848Z,11.45
2022-09-16T09:38:51.170Z,11.50
2022-09-16T09:41:24.548Z,12.18
2022-09-16T09:43:57.313Z,10.63
2022-09-16T09:46:27.827Z,11.40
2022-09-16T09:48:59.352Z,10.85
2022-09-16T09:51:31.603Z,13.43
2022-09-16T09:54:03.985Z,12.15
2022-09-16T09:56:35.541Z,13.63
2022-09-16T09:59:07.803Z,14.63
2022-09-16T10:01:36.379Z,14.73
2022-09-16T10:04:05.815Z,12.73
2022-09-16T10:06:35.920Z,13.77
2022-09-16T10:09:04.630Z,12.75
2022-09-16T10:11:35.001Z,12.95
2022-09-16T10:14:05.809Z,13.95
2022-09-16T10:16:37.175Z,13.93
2022-09-16T10:19:08.922Z,11.85
2022-09-16T10:24:06.010Z,11.38
2022-09-16T10:26:41.484Z,11.65
2022-09-16T10:29:17.009Z,9.70
2022-09-16T10:31:47.368Z,15.60
2022-09-16T10:34:17.311Z,13.80
2022-09-16T10:36:46.112Z,12.52
2022-09-16T10:39:24.480Z,15.23
2022-09-16T10:41:54.578Z,16.50
2022-09-16T10:44:25.470Z,19.88
2022-09-16T10:46:55.267Z,16.50
2022-09-16T10:49:26.408Z,18.08
2022-09-16T10:51:55.007Z,16.30
2022-09-16T10:54:28.289Z,14.68
2022-09-16T10:56:58.360Z,14.13
2022-09-16T10:59:26.966Z,13.18
2022-09-16T11:01:59.589Z,11.65
2022-09-16T11:04:50.563Z,10.77
2022-09-16T11:07:23.621Z,14.40
2022-09-16T11:09:56.373Z,12.82
2022-09-16T11:12:38.508Z,13.50
2022-09-16T11:15:13.119Z,12.75
2022-09-16T11:17:47.246Z,11.30
2022-09-16T11:20:30.648Z,10.45
2022-09-16T11:23:02.721Z,10.38
2022-09-16T11:25:43.230Z,10.38
2022-09-16T11:28:28.767Z,8.73
2022-09-16T11:30:59.651Z,8.70
2022-09-16T11:33:31.123Z,9.13
2022-09-16T11:36:06.097Z,8.32
2022-09-16T11:38:43.751Z,8.10
2022-09-16T11:41:18.088Z,8.35
2022-09-16T11:43:54.687Z,9.13
2022-09-16T11:46:25.082Z,8.80
2022-09-16T11:49:01.140Z,7.68
2022-09-16T11:51:36.753Z,11.77
2022-09-16T11:54:13.401Z,7.95
2022-09-16T11:56:45.581Z,7.13
2022-09-16T11:59:20.680Z,11.57
2022-09-16T12:01:53.098Z,12.60
2022-09-16T12:04:26.749Z,6.65
2022-09-16T12:06:57.951Z,8.85
2022-09-16T12:09:30.049Z,6.13
2022-09-16T12:12:02.262Z,7.82
2022-09-16T12:14:33.715Z,7.68
2022-09-16T12:17:06.203Z,5.80
2022-09-16T12:19:36.708Z,6.28
2022-09-16T12:22:07.618Z,6.65
2022-09-16T12:24:39.293Z,6.82
2022-09-16T12:29:40.451Z,5.82
2022-09-16T12:32:13.170Z,7.03
2022-09-16T12:34:44.035Z,5.18
2022-09-16T12:37:19.126Z,4.80
2022-09-16T12:39:50.272Z,6.88
2022-09-16T12:42:42.071Z,5.38
2022-09-16T12:45:25.560Z,5.35
2022-09-16T12:48:06.045Z,5.87
2022-09-16T12:50:47.827Z,8.13
2022-09-16T12:55:57.294Z,5.25
2022-09-16T12:58:36.624Z,5.38
2022-09-16T13:01:12.645Z,7.63
2022-09-16T13:03:42.976Z,4.68
2022-09-16T13:06:20.332Z,4.88
2022-09-16T13:08:49.278Z,4.60
2022-09-16T13:14:20.200Z,4.55
2022-09-16T13:16:55.389Z,4.63
2022-09-16T13:19:44.936Z,4.47
2022-09-16T13:22:17.169Z,4.93
2022-09-16T13:24:47.608Z,3.25
2022-09-16T13:27:26.388Z,5.38
2022-09-16T13:30:07.531Z,4.82
2022-09-16T13:32:43.456Z,2.97
2022-09-16T13:35:26.868Z,3.35
2022-09-16T13:37:56.223Z,3.53
2022-09-16T13:40:25.938Z,3.10
2022-09-16T13:43:05.587Z,4.35
2022-09-16T13:45:38.223Z,5.07
2022-09-16T13:48:12.096Z,4.45
2022-09-16T13:50:43.290Z,3.45
2022-09-16T13:53:12.314Z,3.70
2022-09-16T13:55:42.198Z,4.75
2022-09-16T13:58:16.883Z,3.65
2022-09-16T14:00:49.209Z,6.63
2022-09-16T14:03:41.708Z,3.58
2022-09-16T14:06:31.658Z,4.60
2022-09-16T14:09:05.211Z,3.20
2022-09-16T14:11:36.418Z,4.00
2022-09-16T14:14:07.702Z,5.00
2022-09-16T14:16:37.470Z,4.43
2022-09-16T14:19:07.863Z,4.78
2022-09-16T14:21:38.380Z,4.63
2022-09-16T14:24:17.391Z,5.25
2022-09-16T14:26:52.755Z,6.28
2022-09-16T14:29:21.695Z,3.35
2022-09-16T14:31:50.848Z,4.00
2022-09-16T14:34:24.834Z,4.15
2022-09-16T14:36:53.572Z,3.63
2022-09-16T14:39:24.509Z,5.55
2022-09-16T14:41:53.883Z,7.13
2022-09-16T14:44:26.739Z,5.47
2022-09-16T14:47:07.374Z,52.03
2022-09-16T14:49:39.595Z,69.47
2022-09-16T14:52:18.348Z,100.68
2022-09-16T14:54:48.698Z,152.45
2022-09-16T14:57:19.018Z,220.75
2022-09-16T14:59:47.661Z,198.45
2022-09-16T15:02:18.794Z,150.70
2022-09-16T15:04:49.009Z,85.03
2022-09-16T15:07:23.204Z,51.95
2022-09-16T15:09:55.889Z,30.23
2022-09-16T15:12:27.350Z,22.13
2022-09-16T15:14:55.929Z,14.77
2022-09-16T15:17:25.921Z,12.05
2022-09-16T15:19:56.163Z,7.45
2022-09-16T15:22:25.086Z,6.40
2022-09-16T15:24:56.659Z,4.78
2022-09-16T15:27:26.325Z,4.90
2022-09-16T15:29:59.269Z,4.25
2022-09-16T15:32:29.681Z,3.88
2022-09-16T15:35:16.921Z,4.93
2022-09-16T15:37:45.968Z,4.40
2022-09-16T15:40:23.692Z,4.95
2022-09-16T15:43:03.115Z,4.60
2022-09-16T15:45:31.709Z,5.80
2022-09-16T15:48:01.906Z,4.95
2022-09-16T15:50:32.446Z,5.47
2022-09-16T15:53:03.200Z,4.10
2022-09-16T15:55:36.281Z,4.53
2022-09-16T15:58:07.046Z,5.60
2022-09-16T16:00:55.875Z,3.37
2022-09-16T16:03:24.528Z,3.55
2022-09-16T16:05:54.051Z,3.97
2022-09-16T16:08:37.492Z,4.30
2022-09-16T16:11:11.567Z,4.47
2022-09-16T16:13:40.515Z,4.28
2022-09-16T16:16:09.578Z,3.83
2022-09-16T16:18:38.887Z,3.22
2022-09-16T16:21:08.629Z,4.38
2022-09-16T16:23:37.668Z,5.88
2022-09-16T16:26:06.790Z,3.90
2022-09-16T16:28:38.414Z,3.55
2022-09-16T16:33:35.396Z,4.72
2022-09-16T16:36:04.288Z,5.68
2022-09-16T16:38:33.005Z,7.05
2022-09-16T16:41:01.631Z,6.68
2022-09-16T16:43:31.248Z,4.68
2022-09-16T16:46:01.457Z,4.72
2022-09-16T16:48:30.596Z,5.57
2022-09-16T16:51:00.009Z,5.47
2022-09-16T16:53:28.879Z,5.20
2022-09-16T16:56:04.253Z,5.15
2022-09-16T16:58:32.915Z,5.40
2022-09-16T17:01:10.221Z,4.00
2022-09-16T17:03:38.838Z,4.53
2022-09-16T17:06:07.715Z,5.43
2022-09-16T17:08:36.797Z,4.43
2022-09-16T17:11:10.021Z,4.05
2022-09-16T17:13:38.807Z,3.85
2022-09-16T17:16:08.320Z,3.85
2022-09-16T17:18:38.937Z,3.20
2022-09-16T17:21:08.643Z,4.63
2022-09-16T17:23:37.349Z,5.97
2022-09-16T17:26:06.696Z,4.18
2022-09-16T17:28:35.246Z,4.40
2022-09-16T17:31:03.886Z,3.53
2022-09-16T17:33:32.527Z,4.22
2022-09-16T17:36:03.251Z,6.18
2022-09-16T17:38:32.096Z,6.07
2022-09-16T17:41:04.284Z,4.28
2022-09-16T17:43:32.988Z,4.80
2022-09-16T17:46:01.836Z,4.93
2022-09-16T17:48:30.637Z,3.88
2022-09-16T17:50:59.547Z,4.53
2022-09-16T17:53:30.177Z,4.57
2022-09-16T17:56:03.828Z,3.80
2022-09-16T17:58:32.463Z,5.35
2022-09-16T18:01:08.154Z,3.80
2022-09-16T18:03:36.815Z,3.65
2022-09-16T18:06:07.043Z,3.70
2022-09-16T18:08:37.100Z,5.43
2022-09-16T18:11:06.097Z,5.20
2022-09-16T18:13:34.681Z,4.75
2022-09-16T18:16:04.363Z,3.60
2022-09-16T18:18:33.004Z,5.57
2022-09-16T18:21:01.582Z,6.05
2022-09-16T18:23:30.170Z,390.58
2022-09-16T18:26:04.532Z,57.20
2022-09-16T18:28:42.105Z,101.47
2022-09-16T18:31:21.061Z,121.55
2022-09-16T18:33:52.006Z,219.00
2022-09-16T18:36:22.155Z,137.83
2022-09-16T18:38:52.505Z,87.45
2022-09-16T18:41:23.284Z,73.90
2022-09-16T18:43:54.152Z,96.43
2022-09-16T18:46:26.554Z,131.27
2022-09-16T18:48:55.830Z,137.82
2022-09-16T18:51:25.082Z,198.27
2022-09-16T18:53:55.627Z,239.18
2022-09-16T18:56:26.135Z,144.20
2022-09-16T18:59:19.819Z,119.82
2022-09-16T19:01:48.639Z,84.82
2022-09-16T19:04:18.158Z,81.22
2022-09-16T19:06:47.693Z,58.80
2022-09-16T19:09:20.295Z,39.28
2022-09-16T19:11:52.336Z,31.58
2022-09-16T19:14:24.203Z,27.52
2022-09-16T19:16:53.076Z,23.35
2022-09-16T19:19:21.893Z,18.60
2022-09-16T19:21:50.841Z,16.08
2022-09-16T19:24:19.988Z,16.48
2022-09-16T19:26:50.669Z,14.45
2022-09-16T19:29:19.518Z,9.52
2022-09-16T19:31:49.258Z,10.63
2022-09-16T19:34:18.414Z,9.65
2022-09-16T19:36:47.077Z,8.23
2022-09-16T19:39:15.918Z,7.85
2022-09-16T19:41:45.142Z,9.98
2022-09-16T19:44:16.466Z,7.90
2022-09-16T19:46:46.930Z,7.20
2022-09-16T19:49:16.870Z,7.97
2022-09-16T19:51:45.526Z,6.43
2022-09-16T19:54:14.659Z,7.30
2022-09-16T19:56:46.954Z,5.72
2022-09-16T19:59:19.987Z,4.50
2022-09-16T20:01:49.058Z,6.80
2022-09-16T20:04:20.029Z,6.63
2022-09-16T20:06:48.781Z,5.20
2022-09-16T20:09:17.393Z,5.03
2022-09-16T20:11:46.887Z,4.82
2022-09-16T20:14:16.556Z,5.05
2022-09-16T20:16:46.624Z,5.35
2022-09-16T20:19:17.561Z,4.35
2022-09-16T20:21:46.480Z,4.25
2022-09-16T20:24:16.589Z,4.05
2022-09-16T20:26:45.280Z,6.45
2022-09-16T20:29:13.927Z,5.80
2022-09-16T20:31:42.593Z,5.18
2022-09-16T20:34:13.764Z,5.45
2022-09-16T20:36:42.609Z,5.22
2022-09-16T20:39:11.904Z,4.55
2022-09-16T20:41:41.631Z,4.97
2022-09-16T20:44:13.439Z,4.63
2022-09-16T20:46:42.005Z,4.82
2022-09-16T20:49:14.471Z,6.32
2022-09-16T20:51:44.491Z,5.82
2022-09-16T20:54:14.164Z,5.15
2022-09-16T20:56:44.192Z,4.97
2022-09-16T20:59:13.598Z,5.10
2022-09-16T21:01:42.757Z,5.00
2022-09-16T21:04:13.873Z,5.95
2022-09-16T21:06:44.003Z,5.85
2022-09-16T21:09:13.517Z,4.68
2022-09-16T21:11:43.694Z,5.20
2022-09-16T21:14:14.548Z,5.15
2022-09-16T21:16:43.508Z,6.17
2022-09-16T21:19:13.446Z,5.45
2022-09-16T21:21:44.174Z,6.13
2022-09-16T21:24:14.469Z,4.38
2022-09-16T21:26:43.990Z,4.25
2022-09-16T21:29:13.603Z,6.05
2022-09-16T21:31:43.062Z,4.40
2022-09-16T21:34:13.737Z,4.57
2022-09-16T21:36:44.439Z,4.85
2022-09-16T21:39:15.270Z,4.63
2022-09-16T21:41:45.453Z,4.40
2022-09-16T21:44:14.409Z,3.70
2022-09-16T21:46:45.081Z,5.03
2022-09-16T21:49:18.221Z,3.75
2022-09-16T21:51:46.836Z,7.20
2022-09-16T21:54:20.446Z,5.15
2022-09-16T21:56:49.678Z,4.47
2022-09-16T21:59:19.818Z,5.13
2022-09-16T22:01:49.641Z,5.63
2022-09-16T22:04:18.996Z,5.25
2022-09-16T22:06:48.789Z,6.28
2022-09-16T22:09:19.039Z,6.55
2022-09-16T22:11:47.853Z,6.18
2022-09-16T22:14:16.429Z,6.40
2022-09-16T22:16:45.306Z,5.30
2022-09-16T22:19:14.901Z,5.15
2022-09-16T22:21:44.535Z,6.65
2022-09-16T22:24:13.630Z,5.45
2022-09-16T22:26:44.430Z,5.85
2022-09-16T22:29:13.065Z,6.07
2022-09-16T22:31:42.420Z,5.22
2022-09-16T22:34:11.321Z,6.68
2022-09-16T22:36:40.326Z,6.20
2022-09-16T22:39:10.242Z,6.65
2022-09-16T22:41:38.840Z,6.22
2022-09-16T22:44:08.802Z,5.88
2022-09-16T22:46:41.013Z,6.72
2022-09-16T22:49:09.691Z,6.63
2022-09-16T22:51:38.603Z,5.20
2022-09-16T22:54:07.388Z,5.15
2022-09-16T22:56:36.266Z,5.50
2022-09-16T22:59:05.674Z,5.85
2022-09-16T23:01:36.639Z,4.88
2022-09-16T23:04:05.680Z,5.90
2022-09-16T23:06:35.555Z,4.75
2022-09-16T23:09:04.563Z,6.78
2022-09-16T23:11:34.135Z,6.63
2022-09-16T23:14:04.172Z,5.03
2022-09-16T23:16:33.635Z,5.47
2022-09-16T23:19:04.709Z,5.18
2022-09-16T23:21:33.520Z,5.03
2022-09-16T23:24:03.257Z,5.88
2022-09-16T23:26:32.661Z,5.60
2022-09-16T23:29:02.002Z,5.03
2022-09-16T23:31:31.184Z,4.70
2022-09-16T23:33:59.983Z,5.65
2022-09-16T23:36:30.431Z,7.13
2022-09-16T23:39:00.543Z,5.68
2022-09-16T23:41:29.333Z,3.85
2022-09-16T23:43:58.241Z,6.30
2022-09-16T23:46:28.867Z,5.45
2022-09-16T23:48:57.555Z,4.95
2022-09-16T23:51:28.449Z,4.18
2022-09-16T23:53:59.215Z,4.55
2022-09-16T23:56:28.455Z,5.45
2022-09-16T23:58:59.738Z,7.63
